Time;durP1;ratioP1;P1;durP2;ratioP2;P2;SDS_P1;SDS_P2;PMS_P1;PMS_P2;Temp;Humidity;BMP_temperature;BMP_pressure;BME280_temperature;BME280_humidity;BME280_pressure;Samples;Min_cycle;Max_cycle;Signal;HPM_P1;HPM_P2
2021/03/17 00:00:54;;;;;;;7.50;5.03;;;2.00;99.90;;;;;;5077862;28;20040;-78
2021/03/17 00:03:38;;;;;;;6.65;4.32;;;2.00;99.90;;;;;;5074406;28;20055;-79
2021/03/17 00:06:28;;;;;;;9.52;4.90;;;2.00;99.90;;;;;;5088112;28;20097;-79
2021/03/17 00:09:14;;;;;;;9.10;5.20;;;2.00;99.90;;;;;;5078193;28;20117;-79
2021/03/17 00:12:03;;;;;;;11.10;5.53;;;2.00;99.90;;;;;;5074614;28;20059;-79
2021/03/17 00:14:48;;;;;;;8.35;4.95;;;2.00;99.90;;;;;;5070235;28;20178;-79
2021/03/17 00:17:33;;;;;;;8.48;4.95;;;2.10;99.90;;;;;;5069360;28;20055;-79
2021/03/17 00:20:25;;;;;;;8.98;5.97;;;2.10;99.90;;;;;;5069920;28;20047;-79
2021/03/17 00:23:17;;;;;;;10.68;5.00;;;2.10;99.90;;;;;;5070169;28;20048;-79
2021/03/17 00:26:07;;;;;;;9.60;5.35;;;2.10;99.90;;;;;;5070247;28;20056;-79
2021/03/17 00:28:56;;;;;;;9.18;5.13;;;2.10;99.90;;;;;;5070297;28;20071;-79
2021/03/17 00:31:46;;;;;;;8.30;5.63;;;2.10;99.90;;;;;;5070210;28;20059;-79
2021/03/17 00:34:31;;;;;;;9.82;5.97;;;2.10;99.90;;;;;;5069976;28;20047;-79
2021/03/17 00:37:17;;;;;;;8.65;5.80;;;2.00;99.90;;;;;;5070296;28;20047;-78
2021/03/17 00:40:05;;;;;;;8.38;5.15;;;2.00;99.90;;;;;;5069791;28;20147;-78
2021/03/17 00:42:55;;;;;;;9.68;5.50;;;1.90;99.90;;;;;;5073557;28;20052;-79
2021/03/17 00:45:40;;;;;;;10.63;6.93;;;1.80;99.90;;;;;;5073559;28;20430;-78
2021/03/17 00:48:11;;;;;;;9.63;6.78;;;1.70;99.90;;;;;;5072966;28;20056;-79
2021/03/17 00:50:52;;;;;;;12.88;6.57;;;1.70;99.90;;;;;;5058312;28;20595;-79
2021/03/17 00:53:41;;;;;;;8.35;5.50;;;1.60;99.90;;;;;;5073028;28;20608;-79
2021/03/17 00:56:13;;;;;;;7.70;5.38;;;1.50;99.90;;;;;;5056538;28;20040;-78
2021/03/17 00:58:44;;;;;;;8.00;5.32;;;1.40;99.90;;;;;;5056394;28;20044;-78
2021/03/17 01:01:10;;;;;;;7.55;5.63;;;1.40;99.90;;;;;;5056238;28;20066;-78
2021/03/17 01:03:37;;;;;;;11.80;7.22;;;1.30;99.90;;;;;;5072559;28;20068;-78
2021/03/17 01:06:09;;;;;;;8.93;5.35;;;1.30;99.90;;;;;;5056548;28;20048;-78
2021/03/17 01:08:41;;;;;;;7.63;5.07;;;1.30;99.90;;;;;;5056361;28;20139;-79
2021/03/17 01:11:13;;;;;;;7.82;6.13;;;1.20;99.90;;;;;;5072503;28;20044;-79
2021/03/17 01:13:44;;;;;;;9.80;5.50;;;1.20;99.90;;;;;;5056455;28;20095;-79
2021/03/17 01:16:16;;;;;;;7.90;5.50;;;1.20;99.90;;;;;;5056541;28;20040;-79
2021/03/17 01:18:47;;;;;;;7.45;4.85;;;1.20;99.90;;;;;;5071997;28;20055;-78
2021/03/17 01:21:18;;;;;;;8.23;5.15;;;1.20;99.90;;;;;;5056300;28;20064;-78
2021/03/17 01:23:50;;;;;;;8.65;5.45;;;1.20;99.90;;;;;;5056644;28;20045;-78
2021/03/17 01:26:21;;;;;;;7.70;4.70;;;1.20;99.90;;;;;;5056631;28;20067;-78
2021/03/17 01:28:52;;;;;;;8.75;5.20;;;1.20;99.90;;;;;;5072018;28;20135;-78
2021/03/17 01:31:23;;;;;;;8.38;5.60;;;1.30;99.90;;;;;;5056141;28;20063;-78
2021/03/17 01:33:50;;;;;;;8.60;5.68;;;1.20;99.90;;;;;;5055274;28;20071;-78
2021/03/17 01:36:16;;;;;;;8.82;6.03;;;1.30;99.90;;;;;;5055425;28;20470;-79
2021/03/17 01:38:47;;;;;;;10.65;6.43;;;1.30;99.90;;;;;;5055605;28;20050;-79
2021/03/17 01:41:14;;;;;;;8.85;5.40;;;1.30;99.90;;;;;;5071989;28;20094;-78
2021/03/17 01:43:45;;;;;;;12.32;6.55;;;1.30;99.90;;;;;;5072224;28;20481;-78
2021/03/17 01:46:17;;;;;;;9.45;6.40;;;1.30;99.90;;;;;;5071688;28;20469;-78
2021/03/17 01:48:48;;;;;;;11.27;6.82;;;1.30;99.90;;;;;;5055380;28;20055;-78
2021/03/17 01:51:19;;;;;;;10.10;6.45;;;1.30;99.90;;;;;;5055743;28;20139;-78
2021/03/17 01:53:51;;;;;;;10.38;6.47;;;1.20;99.90;;;;;;5055399;28;20059;-79
2021/03/17 01:56:22;;;;;;;11.07;7.43;;;1.20;99.90;;;;;;5055515;28;20090;-78
2021/03/17 01:58:54;;;;;;;11.73;7.43;;;1.30;99.90;;;;;;5055100;28;20129;-78
2021/03/17 02:01:25;;;;;;;11.07;7.03;;;1.20;99.90;;;;;;5055122;28;20051;-78
2021/03/17 02:03:56;;;;;;;10.48;7.18;;;1.30;99.90;;;;;;5054992;28;20055;-78
2021/03/17 02:06:28;;;;;;;13.98;8.15;;;1.30;99.90;;;;;;5070524;28;20044;-79
2021/03/17 02:08:54;;;;;;;14.95;7.70;;;1.30;99.90;;;;;;5070448;28;20150;-78
2021/03/17 02:11:20;;;;;;;12.25;7.75;;;1.30;99.90;;;;;;5054181;28;20093;-78
2021/03/17 02:13:55;;;;;;;11.32;7.72;;;1.30;99.90;;;;;;5054885;28;20037;-79
2021/03/17 02:16:36;;;;;;;12.82;8.15;;;1.30;99.90;;;;;;5070998;28;20045;-79
2021/03/17 02:19:39;;;;;;;12.52;7.93;;;1.30;99.90;;;;;;5054647;28;20055;-78
2021/03/17 02:22:49;;;;;;;11.73;7.57;;;1.30;99.90;;;;;;5071001;28;20047;-78
2021/03/17 02:25:35;;;;;;;13.98;7.72;;;1.30;99.90;;;;;;5054715;28;20040;-78
2021/03/17 02:28:12;;;;;;;14.23;8.10;;;1.30;99.90;;;;;;5070263;28;20040;-78
2021/03/17 02:30:52;;;;;;;13.23;8.00;;;1.30;99.90;;;;;;5054620;28;20056;-78
2021/03/17 02:33:45;;;;;;;14.82;8.57;;;1.30;99.90;;;;;;5054620;28;20040;-78
2021/03/17 02:36:42;;;;;;;14.40;8.50;;;1.30;99.90;;;;;;5070464;28;20037;-78
2021/03/17 02:39:15;;;;;;;15.80;9.40;;;1.30;99.90;;;;;;5070462;28;20135;-78
2021/03/17 02:41:49;;;;;;;14.73;9.30;;;1.40;99.90;;;;;;5070614;28;20062;-78
2021/03/17 02:44:18;;;;;;;13.10;8.90;;;1.30;99.90;;;;;;5071909;28;20068;-79
2021/03/17 02:46:51;;;;;;;13.45;9.43;;;1.30;99.90;;;;;;5070529;28;20047;-78
2021/03/17 02:49:25;;;;;;;10.83;7.03;;;1.30;99.90;;;;;;5054352;28;20144;-78
2021/03/17 02:51:59;;;;;;;12.43;8.23;;;1.30;99.90;;;;;;5054295;28;20404;-80
2021/03/17 02:54:33;;;;;;;13.93;9.23;;;1.40;99.90;;;;;;5054144;28;20040;-80
2021/03/17 02:57:13;;;;;;;13.73;9.05;;;1.40;99.90;;;;;;5070315;28;20392;-78
2021/03/17 02:59:42;;;;;;;15.75;8.02;;;1.40;99.90;;;;;;5053834;28;20566;-78
2021/03/17 03:02:11;;;;;;;15.25;9.25;;;1.40;99.90;;;;;;5053603;28;20384;-78
2021/03/17 03:04:44;;;;;;;13.20;8.95;;;1.40;99.90;;;;;;5053623;28;20496;-79
2021/03/17 03:07:16;;;;;;;11.90;8.30;;;1.40;99.90;;;;;;5070252;28;20050;-78
2021/03/17 03:09:49;;;;;;;13.20;8.95;;;1.40;99.90;;;;;;5053880;28;20048;-79
2021/03/17 03:12:21;;;;;;;11.52;8.60;;;1.40;99.90;;;;;;5054244;28;20503;-78
2021/03/17 03:14:53;;;;;;;15.02;8.35;;;1.40;99.90;;;;;;5054031;28;20049;-78
2021/03/17 03:17:26;;;;;;;15.23;8.18;;;1.50;99.90;;;;;;5053808;28;20044;-78
2021/03/17 03:19:59;;;;;;;14.27;8.48;;;1.40;99.90;;;;;;5071076;28;20513;-78
2021/03/17 03:22:31;;;;;;;14.60;9.48;;;1.40;99.90;;;;;;5054185;28;20041;-79
2021/03/17 03:25:03;;;;;;;11.80;8.50;;;1.40;99.90;;;;;;5053898;28;20072;-78
2021/03/17 03:27:35;;;;;;;12.23;8.38;;;1.40;99.90;;;;;;5054019;28;20044;-78
2021/03/17 03:30:13;;;;;;;13.20;8.73;;;1.40;99.90;;;;;;5053784;28;20048;-78
2021/03/17 03:32:45;;;;;;;12.95;8.38;;;1.50;99.90;;;;;;5053855;28;20423;-79
2021/03/17 03:35:16;;;;;;;11.80;8.27;;;1.50;99.90;;;;;;5069963;28;20510;-78
2021/03/17 03:37:48;;;;;;;13.73;8.95;;;1.50;99.90;;;;;;5053891;28;20314;-78
2021/03/17 03:40:20;;;;;;;15.50;9.40;;;1.50;99.90;;;;;;5053693;28;20148;-78
2021/03/17 03:42:51;;;;;;;14.65;9.48;;;1.50;99.90;;;;;;5069870;28;20114;-78
2021/03/17 03:45:23;;;;;;;14.50;9.35;;;1.40;99.90;;;;;;5053895;28;20040;-78
2021/03/17 03:47:55;;;;;;;13.73;9.35;;;1.40;99.90;;;;;;5053785;28;20052;-78
2021/03/17 03:50:28;;;;;;;13.55;8.57;;;1.40;99.90;;;;;;5069946;28;20652;-78
2021/03/17 03:53:15;;;;;;;14.35;8.98;;;1.30;99.90;;;;;;5069841;28;20107;-78
2021/03/17 03:56:01;;;;;;;15.65;9.52;;;1.30;99.90;;;;;;5053743;28;20043;-78
2021/03/17 03:58:32;;;;;;;15.13;8.43;;;1.30;99.90;;;;;;5069809;28;20049;-78
2021/03/17 04:01:38;;;;;;;13.18;8.85;;;1.40;99.90;;;;;;5070239;28;20143;-79
2021/03/17 04:04:13;;;;;;;14.15;9.32;;;1.40;99.90;;;;;;5057370;28;20583;-78
2021/03/17 04:06:46;;;;;;;16.75;8.85;;;1.30;99.90;;;;;;5069880;28;20113;-78
2021/03/17 04:09:26;;;;;;;12.82;9.80;;;1.30;99.90;;;;;;5069670;28;20044;-78
2021/03/17 04:12:01;;;;;;;14.27;9.73;;;1.20;99.90;;;;;;5054045;28;20044;-78
2021/03/17 04:14:30;;;;;;;15.95;10.38;;;1.20;99.90;;;;;;5069641;28;20076;-78
2021/03/17 04:17:08;;;;;;;15.20;10.88;;;1.20;99.90;;;;;;5056295;28;20041;-79
2021/03/17 04:19:43;;;;;;;15.88;9.57;;;1.30;99.90;;;;;;5057331;28;20045;-79
2021/03/17 04:22:11;;;;;;;15.20;9.52;;;1.30;99.90;;;;;;5057529;28;20098;-78
2021/03/17 04:24:40;;;;;;;14.75;9.50;;;1.40;99.90;;;;;;5056876;28;20147;-79
2021/03/17 04:27:12;;;;;;;16.13;9.82;;;1.40;99.90;;;;;;5058023;28;20037;-78
2021/03/17 04:29:47;;;;;;;16.48;10.07;;;1.40;99.90;;;;;;5057274;28;20040;-79
2021/03/17 04:32:19;;;;;;;13.45;9.13;;;1.40;99.90;;;;;;5073330;28;20063;-78
2021/03/17 04:34:46;;;;;;;15.23;10.00;;;1.40;99.90;;;;;;5074466;28;20064;-78
2021/03/17 04:37:19;;;;;;;13.35;8.82;;;1.40;99.90;;;;;;5073204;28;20380;-79
2021/03/17 04:39:51;;;;;;;14.25;10.07;;;1.50;99.90;;;;;;5057183;28;20043;-79
2021/03/17 04:42:23;;;;;;;13.02;8.85;;;1.50;99.90;;;;;;5057268;28;20062;-78
2021/03/17 04:44:55;;;;;;;15.68;9.52;;;1.50;99.90;;;;;;5057054;28;20052;-79
2021/03/17 04:47:27;;;;;;;18.67;10.35;;;1.40;99.90;;;;;;5056776;28;20078;-79
2021/03/17 04:49:55;;;;;;;25.00;15.30;;;1.50;99.90;;;;;;5055861;28;20566;-78
2021/03/17 04:52:28;;;;;;;23.15;13.65;;;1.50;99.90;;;;;;5056407;28;20048;-78
2021/03/17 04:54:59;;;;;;;19.10;11.63;;;1.60;99.90;;;;;;5056190;28;20150;-78
2021/03/17 04:57:34;;;;;;;17.70;9.82;;;1.60;99.90;;;;;;5071864;28;20108;-78
2021/03/17 05:00:14;;;;;;;18.67;11.73;;;1.60;99.90;;;;;;5055475;28;20040;-77
2021/03/17 05:03:01;;;;;;;27.02;17.88;;;1.60;99.90;;;;;;5071549;28;20043;-78
2021/03/17 05:05:33;;;;;;;32.80;19.90;;;1.60;99.90;;;;;;5055884;28;20040;-78
2021/03/17 05:08:06;;;;;;;60.88;31.70;;;1.60;99.90;;;;;;5055651;28;20102;-78
2021/03/17 05:10:33;;;;;;;67.15;33.42;;;1.60;99.90;;;;;;5055468;28;20075;-78
2021/03/17 05:13:01;;;;;;;34.15;17.65;;;1.60;99.90;;;;;;5070630;28;20046;-78
2021/03/17 05:15:32;;;;;;;49.65;23.67;;;1.60;99.90;;;;;;5091680;28;20206;-78
2021/03/17 05:18:05;;;;;;;23.77;14.88;;;1.60;99.90;;;;;;5074868;28;20036;-78
2021/03/17 05:20:32;;;;;;;21.02;12.63;;;1.60;99.90;;;;;;5091641;28;20617;-79
2021/03/17 05:22:59;;;;;;;22.70;13.85;;;1.60;99.90;;;;;;5074918;28;20770;-78
2021/03/17 05:25:32;;;;;;;24.27;14.98;;;1.60;99.90;;;;;;5075307;28;20054;-78
2021/03/17 05:28:04;;;;;;;21.98;15.38;;;1.60;99.90;;;;;;5092014;28;20131;-78
2021/03/17 05:30:39;;;;;;;30.65;18.30;;;1.70;99.90;;;;;;5091443;28;20056;-78
2021/03/17 05:33:08;;;;;;;151.20;68.25;;;1.60;99.90;;;;;;5074492;28;20113;-79
2021/03/17 05:35:35;;;;;;;26.45;17.58;;;1.60;99.90;;;;;;5074391;28;20075;-80
2021/03/17 05:38:07;;;;;;;36.17;19.90;;;1.60;99.90;;;;;;5074792;28;20044;-78
2021/03/17 05:40:39;;;;;;;54.78;29.88;;;1.90;99.90;;;;;;5074908;28;20040;-78
2021/03/17 05:43:10;;;;;;;46.13;23.65;;;2.00;99.90;;;;;;5075058;28;20046;-78
2021/03/17 05:45:41;;;;;;;84.88;38.85;;;2.10;99.90;;;;;;5090902;28;20048;-78
2021/03/17 05:48:16;;;;;;;72.10;35.95;;;2.00;99.90;;;;;;5089643;28;20097;-78
2021/03/17 05:50:48;;;;;;;79.25;38.83;;;1.90;99.90;;;;;;5074697;28;20052;-78
2021/03/17 05:53:19;;;;;;;32.58;17.95;;;1.80;99.90;;;;;;5091178;28;20139;-79
2021/03/17 05:55:51;;;;;;;37.72;20.00;;;1.80;99.90;;;;;;5074525;28;20761;-78
2021/03/17 05:58:23;;;;;;;37.08;19.63;;;1.80;99.90;;;;;;5074150;28;20039;-79
2021/03/17 06:00:54;;;;;;;73.95;36.03;;;1.80;99.90;;;;;;5072614;28;20037;-78
2021/03/17 06:03:21;;;;;;;58.75;28.55;;;1.70;99.90;;;;;;5074057;28;20144;-78
2021/03/17 06:05:53;;;;;;;49.67;23.90;;;1.70;99.90;;;;;;5091048;28;20716;-78
2021/03/17 06:08:24;;;;;;;91.10;39.72;;;1.70;99.90;;;;;;5074451;28;20071;-78
2021/03/17 06:10:56;;;;;;;126.55;54.63;;;1.70;99.90;;;;;;5067004;28;20054;-78
2021/03/17 06:13:32;;;;;;;161.25;68.80;;;1.70;99.90;;;;;;5068683;28;20131;-79
2021/03/17 06:16:07;;;;;;;133.63;55.55;;;1.70;99.90;;;;;;5069642;28;20043;-78
2021/03/17 06:18:41;;;;;;;99.82;44.95;;;1.80;99.90;;;;;;5069751;28;20041;-78
2021/03/17 06:21:18;;;;;;;47.47;22.73;;;1.80;99.90;;;;;;5076827;28;20138;-76
2021/03/17 06:23:51;;;;;;;53.05;24.98;;;1.80;99.90;;;;;;5110129;28;20042;-78
2021/03/17 06:26:23;;;;;;;;;;;1.80;99.90;;;;;;5094435;28;20543;-78
2021/03/17 06:28:50;;;;;;;37.05;18.13;;;1.80;99.90;;;;;;5109969;28;20365;-79
2021/03/17 06:31:22;;;;;;;45.75;21.85;;;1.80;99.90;;;;;;5093671;28;20468;-78
2021/03/17 06:33:53;;;;;;;40.80;19.52;;;1.80;99.90;;;;;;5089134;28;20051;-78
2021/03/17 06:36:26;;;;;;;33.35;18.60;;;1.80;99.90;;;;;;5073527;28;20433;-78
2021/03/17 06:39:09;;;;;;;24.58;14.52;;;1.80;99.90;;;;;;5088111;28;20482;-78
2021/03/17 06:41:46;;;;;;;29.90;16.20;;;1.80;99.90;;;;;;5073521;28;20055;-80
2021/03/17 06:44:18;;;;;;;21.95;12.68;;;1.80;99.90;;;;;;5072817;28;20143;-78
2021/03/17 06:47:18;;;;;;;27.08;16.60;;;1.80;99.90;;;;;;5073402;28;20058;-78
2021/03/17 06:49:46;;;;;;;24.33;14.32;;;1.90;99.90;;;;;;5071726;28;20150;-79
2021/03/17 06:52:31;;;;;;;26.05;14.07;;;1.90;99.90;;;;;;5073268;28;20046;-79
2021/03/17 06:55:07;;;;;;;24.50;13.13;;;1.90;99.90;;;;;;5088089;28;20131;-79
2021/03/17 06:57:35;;;;;;;29.83;16.77;;;1.90;99.90;;;;;;5071261;28;20106;-78
2021/03/17 07:00:26;;;;;;;25.35;13.40;;;1.90;99.90;;;;;;5072370;28;20471;-78
2021/03/17 07:02:58;;;;;;;22.45;13.23;;;1.90;99.90;;;;;;5075431;28;20043;-78
2021/03/17 07:05:36;;;;;;;23.38;13.30;;;1.90;99.90;;;;;;5072306;28;20040;-78
2021/03/17 07:08:29;;;;;;;25.42;15.20;;;1.90;99.90;;;;;;5072327;28;20138;-78
2021/03/17 07:10:59;;;;;;;27.42;15.55;;;1.90;99.90;;;;;;5101428;28;20043;-77
2021/03/17 07:13:31;;;;;;;19.90;11.80;;;1.90;99.90;;;;;;5106978;28;20054;-79
2021/03/17 07:16:02;;;;;;;21.65;11.90;;;1.90;99.90;;;;;;5089104;28;20077;-78
2021/03/17 07:18:34;;;;;;;21.73;12.00;;;1.80;99.90;;;;;;5075923;28;20041;-79
2021/03/17 07:21:06;;;;;;;20.55;11.93;;;1.90;99.90;;;;;;5051955;28;20127;-79
2021/03/17 07:23:42;;;;;;;19.75;11.20;;;1.90;99.90;;;;;;5084994;28;20115;-79
2021/03/17 07:26:08;;;;;;;20.63;12.10;;;2.00;99.90;;;;;;5068495;28;20040;-79
2021/03/17 07:28:47;;;;;;;20.33;12.23;;;2.00;99.90;;;;;;5069027;28;20075;-78
2021/03/17 07:31:24;;;;;;;20.75;11.77;;;2.00;99.90;;;;;;5060849;28;20530;-78
2021/03/17 07:33:52;;;;;;;19.45;11.82;;;2.10;99.90;;;;;;5072432;28;20056;-78
2021/03/17 07:36:52;;;;;;;26.30;13.73;;;2.10;99.90;;;;;;5071808;28;20036;-77
2021/03/17 07:39:18;;;;;;;20.27;11.68;;;2.20;99.90;;;;;;5052721;28;20036;-78
2021/03/17 07:41:45;;;;;;;21.73;12.35;;;2.30;99.90;;;;;;5089668;28;20101;-78
2021/03/17 07:44:17;;;;;;;20.25;11.32;;;2.40;99.90;;;;;;5074212;28;20036;-78
2021/03/17 07:46:51;;;;;;;19.63;10.52;;;2.40;99.90;;;;;;5074070;28;20111;-78
2021/03/17 07:49:18;;;;;;;21.08;11.23;;;2.40;99.90;;;;;;5072667;28;20063;-78
2021/03/17 07:51:54;;;;;;;17.92;10.52;;;2.40;99.90;;;;;;5089217;28;20040;-77
2021/03/17 07:54:29;;;;;;;23.40;12.15;;;2.40;99.90;;;;;;5089580;28;20101;-78
2021/03/17 07:57:03;;;;;;;22.17;11.85;;;2.40;99.90;;;;;;5072800;28;20473;-79
2021/03/17 07:59:30;;;;;;;20.85;10.68;;;2.50;99.90;;;;;;5089132;28;20503;-79
2021/03/17 08:01:58;;;;;;;20.77;10.55;;;2.60;99.90;;;;;;5072789;28;20287;-78
2021/03/17 08:04:30;;;;;;;20.83;12.68;;;2.70;99.90;;;;;;5071555;28;20085;-79
2021/03/17 08:07:00;;;;;;;20.08;11.20;;;2.70;99.90;;;;;;5084599;28;20041;-78
2021/03/17 08:09:32;;;;;;;23.30;11.80;;;2.90;99.90;;;;;;5086394;28;20033;-77
2021/03/17 08:12:02;;;;;;;19.92;12.13;;;3.10;99.90;;;;;;5070736;28;20056;-78
2021/03/17 08:14:35;;;;;;;16.45;10.48;;;3.20;99.90;;;;;;5077906;28;20096;-81
2021/03/17 08:17:01;;;;;;;19.30;10.30;;;3.30;99.90;;;;;;5084135;28;20051;-79
2021/03/17 08:24:36;;;;;;;14.88;7.40;;;3.40;99.90;;;;;;5084738;23;20047;-82
2021/03/17 09:11:37;;;;;;;11.25;6.13;;;3.70;99.90;;;;;;5041476;28;20038;-81
2021/03/17 09:24:06;;;;;;;13.18;7.03;;;3.50;99.90;;;;;;5021783;28;20025;-81
2021/03/17 09:38:42;;;;;;;7.07;4.13;;;4.40;99.90;;;;;;4999088;28;20058;-83
2021/03/17 09:59:55;;;;;;;6.30;3.70;;;4.10;99.90;;;;;;5024557;28;20045;-80
2021/03/17 10:02:27;;;;;;;6.47;2.83;;;4.10;99.90;;;;;;5016950;28;20041;-80
2021/03/17 10:04:56;;;;;;;6.97;3.88;;;4.10;99.90;;;;;;5019148;28;20488;-80
2021/03/17 10:07:32;;;;;;;6.85;3.63;;;4.20;99.90;;;;;;5022188;28;20050;-82
2021/03/17 10:10:00;;;;;;;9.45;2.85;;;4.30;99.90;;;;;;5000319;28;20058;-80
2021/03/17 10:12:29;;;;;;;9.90;3.25;;;4.20;99.90;;;;;;5016954;28;20042;-80
2021/03/17 10:15:03;;;;;;;8.25;3.25;;;4.20;99.90;;;;;;5006216;28;20100;-80
2021/03/17 10:17:34;;;;;;;3.85;2.33;;;4.20;99.90;;;;;;5001845;28;20046;-80
2021/03/17 10:20:11;;;;;;;5.57;2.30;;;4.10;99.90;;;;;;5018145;28;20050;-80
2021/03/17 10:22:45;;;;;;;6.60;2.58;;;4.00;99.90;;;;;;5004878;28;20046;-80
2021/03/17 10:25:22;;;;;;;10.55;2.72;;;4.10;99.90;;;;;;4982825;28;20663;-80
2021/03/17 10:27:57;;;;;;;6.20;2.33;;;4.30;99.90;;;;;;5012341;28;20080;-77
2021/03/17 10:30:41;;;;;;;5.35;2.25;;;4.50;99.90;;;;;;4974498;28;20409;-77
2021/03/17 10:33:21;;;;;;;3.15;1.65;;;4.80;99.90;;;;;;4990132;28;20031;-77
2021/03/17 10:35:48;;;;;;;5.65;1.98;;;5.00;96.30;;;;;;4980608;28;20045;-78
2021/03/17 10:38:14;;;;;;;7.75;2.58;;;4.90;94.10;;;;;;4997837;28;20142;-77
2021/03/17 10:40:41;;;;;;;6.10;1.98;;;5.00;95.80;;;;;;4988470;28;20437;-77
2021/03/17 10:43:14;;;;;;;8.55;3.40;;;5.10;95.60;;;;;;4986514;28;20104;-80
2021/03/17 10:45:53;;;;;;;6.28;2.55;;;5.30;97.00;;;;;;4995006;28;20164;-77
2021/03/17 10:48:26;;;;;;;4.85;2.35;;;5.40;93.60;;;;;;4988641;28;20049;-78
2021/03/17 10:50:53;;;;;;;9.82;6.07;;;5.30;90.10;;;;;;5005344;28;20508;-78
2021/03/17 10:53:25;;;;;;;9.60;4.10;;;5.30;92.60;;;;;;5005419;28;20046;-77
2021/03/17 10:55:53;;;;;;;6.93;3.60;;;5.20;91.50;;;;;;4977148;28;20046;-77
2021/03/17 10:58:24;;;;;;;4.03;2.53;;;5.20;93.30;;;;;;5003264;28;20050;-78
2021/03/17 11:00:54;;;;;;;13.93;9.20;;;5.20;94.60;;;;;;5008867;28;20041;-77
2021/03/17 11:03:34;;;;;;;6.07;2.78;;;5.30;93.20;;;;;;4993106;28;20041;-77
2021/03/17 11:06:20;;;;;;;10.07;4.68;;;5.30;96.00;;;;;;4991343;28;20050;-77
2021/03/17 11:09:05;;;;;;;5.15;2.50;;;5.30;99.50;;;;;;4986920;28;20577;-78
2021/03/17 11:11:47;;;;;;;5.15;2.00;;;5.20;96.70;;;;;;4991817;28;20137;-77
2021/03/17 11:14:33;;;;;;;6.38;2.15;;;5.20;97.20;;;;;;4982885;28;20078;-77
2021/03/17 11:17:09;;;;;;;7.38;3.17;;;5.10;99.60;;;;;;4992137;28;20045;-79
2021/03/17 11:19:40;;;;;;;3.60;2.60;;;5.00;98.90;;;;;;5007947;28;20056;-77
2021/03/17 11:22:11;;;;;;;3.80;2.45;;;4.90;98.40;;;;;;5008638;28;20152;-77
2021/03/17 11:24:42;;;;;;;5.88;2.70;;;4.80;99.50;;;;;;4992571;28;20042;-77
2021/03/17 11:27:27;;;;;;;8.13;2.65;;;4.80;97.20;;;;;;4992960;28;20038;-77
2021/03/17 11:29:58;;;;;;;3.15;1.30;;;4.80;91.00;;;;;;4992322;28;20052;-77
2021/03/17 11:32:30;;;;;;;2.47;1.42;;;4.80;90.20;;;;;;4992126;28;20052;-77
2021/03/17 11:35:03;;;;;;;5.15;2.03;;;4.80;87.20;;;;;;5008270;28;20077;-77
2021/03/17 11:37:30;;;;;;;4.22;1.80;;;4.80;84.90;;;;;;5007750;28;20104;-77
2021/03/17 11:40:01;;;;;;;3.70;1.70;;;4.90;86.30;;;;;;5007961;28;20060;-78
2021/03/17 11:42:33;;;;;;;2.17;1.35;;;5.00;89.20;;;;;;5008353;28;20044;-77
2021/03/17 11:45:05;;;;;;;3.47;1.70;;;5.10;84.20;;;;;;5007095;28;20041;-77
2021/03/17 11:47:36;;;;;;;2.95;1.70;;;5.20;83.50;;;;;;4992314;28;20048;-77
2021/03/17 11:50:08;;;;;;;3.53;1.10;;;5.20;82.30;;;;;;5008509;28;20034;-79
2021/03/17 11:52:39;;;;;;;5.68;2.15;;;5.20;81.00;;;;;;4994772;28;20239;-76
2021/03/17 11:55:11;;;;;;;2.03;1.23;;;5.20;80.40;;;;;;5014857;28;20147;-81
2021/03/17 11:57:37;;;;;;;3.38;1.40;;;5.20;78.90;;;;;;5020407;28;20393;-80
2021/03/17 12:21:26;;;;;;;5.40;2.28;;;5.30;80.90;;;;;;5017300;28;20033;-79
2021/03/17 12:23:57;;;;;;;3.90;1.88;;;5.30;85.60;;;;;;5022386;28;20130;-80
2021/03/17 12:26:24;;;;;;;4.30;1.80;;;5.30;85.50;;;;;;5016548;28;20042;-81
2021/03/17 12:28:51;;;;;;;2.00;1.40;;;5.20;83.40;;;;;;5015924;28;20050;-80
2021/03/17 12:31:18;;;;;;;4.35;1.38;;;5.20;84.20;;;;;;5017831;28;20057;-82
2021/03/17 12:33:50;;;;;;;4.20;1.50;;;5.20;87.80;;;;;;4997646;28;20073;-81
2021/03/17 12:36:17;;;;;;;2.45;1.48;;;5.10;82.80;;;;;;4980431;28;20378;-81
2021/03/17 12:38:44;;;;;;;2.45;1.45;;;5.10;84.60;;;;;;5012451;28;20045;-80
2021/03/17 12:41:16;;;;;;;5.95;1.70;;;5.10;83.30;;;;;;5004199;28;20504;-81
2021/03/17 12:43:47;;;;;;;6.03;1.85;;;5.00;83.80;;;;;;5019857;28;20069;-81
2021/03/17 12:46:14;;;;;;;5.28;1.52;;;5.00;87.40;;;;;;5019020;28;20053;-80
2021/03/17 12:48:41;;;;;;;2.38;1.55;;;5.10;89.60;;;;;;5002770;28;20053;-80
2021/03/17 12:51:13;;;;;;;2.60;1.35;;;5.10;87.60;;;;;;4986098;28;20112;-80
2021/03/17 12:53:40;;;;;;;6.90;2.80;;;5.20;82.30;;;;;;4987650;28;20058;-79
2021/03/17 12:56:07;;;;;;;4.30;2.90;;;5.10;79.50;;;;;;4987347;28;20116;-81
2021/03/17 12:58:38;;;;;;;4.20;2.05;;;5.20;84.00;;;;;;4986330;28;20053;-81
2021/03/17 13:01:05;;;;;;;3.80;1.45;;;5.30;83.90;;;;;;5001023;28;20129;-80
2021/03/17 13:03:31;;;;;;;2.30;1.30;;;5.40;80.10;;;;;;4984430;28;20055;-80
2021/03/17 13:05:58;;;;;;;2.80;1.27;;;5.50;79.60;;;;;;4983796;28;20052;-80
2021/03/17 13:08:25;;;;;;;7.50;1.63;;;5.60;78.80;;;;;;4983662;28;20050;-81
2021/03/17 13:10:52;;;;;;;2.67;1.77;;;5.60;77.30;;;;;;4984757;28;20077;-81
2021/03/17 13:13:34;;;;;;;2.22;1.55;;;5.80;77.20;;;;;;5000430;28;20096;-80
2021/03/17 13:16:00;;;;;;;5.28;2.42;;;5.70;75.20;;;;;;4986058;28;20069;-81
2021/03/17 13:18:28;;;;;;;2.88;1.45;;;5.80;75.50;;;;;;5004354;28;20089;-80
2021/03/17 13:20:59;;;;;;;6.15;1.48;;;5.70;77.00;;;;;;5002476;28;20137;-81
2021/03/17 13:23:58;;;;;;;3.42;1.48;;;5.70;76.40;;;;;;5003348;28;20074;-81
2021/03/17 13:26:38;;;;;;;3.83;1.63;;;5.70;77.40;;;;;;5002089;28;20054;-81
2021/03/17 13:29:11;;;;;;;3.45;2.05;;;5.60;77.50;;;;;;4987085;28;20058;-81
2021/03/17 13:31:48;;;;;;;2.80;1.33;;;5.40;74.60;;;;;;5001219;28;20478;-80
2021/03/17 13:34:19;;;;;;;4.93;1.30;;;5.40;75.90;;;;;;5000385;28;20125;-81
2021/03/17 13:36:45;;;;;;;2.00;1.20;;;5.30;77.30;;;;;;4981343;28;20073;-78
2021/03/17 13:39:19;;;;;;;2.97;1.33;;;5.50;79.50;;;;;;4980967;28;20042;-79
2021/03/17 13:41:51;;;;;;;2.78;1.38;;;5.70;78.30;;;;;;4981306;28;20104;-79
2021/03/17 13:44:18;;;;;;;2.28;1.25;;;5.90;74.30;;;;;;4980124;28;20054;-79
2021/03/17 13:46:50;;;;;;;2.55;1.27;;;6.00;74.20;;;;;;4996718;28;20052;-79
2021/03/17 13:49:16;;;;;;;1.95;1.02;;;6.00;75.60;;;;;;4996106;28;20537;-79
2021/03/17 13:51:48;;;;;;;1.85;1.20;;;6.00;72.60;;;;;;4981050;28;20046;-79
2021/03/17 13:54:15;;;;;;;3.42;1.33;;;5.90;73.20;;;;;;4979390;28;20046;-79
2021/03/17 13:56:42;;;;;;;3.25;1.25;;;5.80;74.20;;;;;;4996762;28;20065;-78
2021/03/17 13:59:09;;;;;;;2.35;1.20;;;5.80;77.30;;;;;;5015874;28;20117;-79
2021/03/17 14:01:40;;;;;;;2.95;1.30;;;5.70;76.10;;;;;;5016353;28;20049;-78
2021/03/17 14:04:07;;;;;;;2.90;1.17;;;5.80;73.90;;;;;;4999452;28;20042;-79
2021/03/17 14:06:39;;;;;;;5.18;2.30;;;5.80;75.00;;;;;;5000708;28;20674;-78
2021/03/17 14:09:05;;;;;;;4.13;1.55;;;5.90;76.20;;;;;;5015871;28;20050;-78
2021/03/17 14:11:32;;;;;;;3.72;1.73;;;5.90;74.20;;;;;;5016172;28;20049;-78
2021/03/17 14:13:59;;;;;;;1.90;1.20;;;5.90;72.40;;;;;;5000148;28;20046;-78
2021/03/17 14:16:28;;;;;;;3.95;1.08;;;5.80;72.40;;;;;;5000965;28;20045;-78
2021/03/17 14:19:06;;;;;;;2.58;1.40;;;5.70;71.90;;;;;;5001096;28;20042;-78
2021/03/17 14:21:38;;;;;;;4.28;1.38;;;5.60;73.30;;;;;;5017040;28;20045;-78
2021/03/17 14:24:05;;;;;;;1.92;1.17;;;5.50;71.60;;;;;;5015625;28;20042;-79
2021/03/17 14:26:39;;;;;;;4.32;1.38;;;5.50;75.20;;;;;;5000134;28;20045;-78
2021/03/17 14:29:11;;;;;;;3.15;1.10;;;5.50;76.50;;;;;;5015817;28;20576;-79
2021/03/17 14:31:38;;;;;;;3.88;1.33;;;5.50;73.00;;;;;;5015987;28;20509;-78
2021/03/17 14:34:10;;;;;;;2.45;1.20;;;5.50;74.80;;;;;;5000520;28;20074;-78
2021/03/17 14:36:36;;;;;;;2.30;1.40;;;5.60;75.20;;;;;;5015699;28;20073;-78
2021/03/17 14:39:03;;;;;;;1.67;1.20;;;5.60;73.40;;;;;;4999119;28;20085;-78
2021/03/17 14:41:35;;;;;;;2.03;1.15;;;5.50;75.00;;;;;;5015913;28;20117;-78
2021/03/17 14:44:02;;;;;;;3.40;1.48;;;5.50;76.30;;;;;;4999123;28;20050;-78
2021/03/17 14:46:34;;;;;;;2.83;1.17;;;5.50;75.20;;;;;;4998429;28;20045;-77
2021/03/17 14:49:06;;;;;;;2.80;1.38;;;5.50;76.50;;;;;;4999767;28;20042;-80
2021/03/17 14:51:40;;;;;;;2.22;1.20;;;5.50;76.50;;;;;;5014656;28;20034;-79
2021/03/17 14:54:12;;;;;;;2.35;1.25;;;5.50;76.60;;;;;;5014959;28;20129;-79
2021/03/17 14:56:43;;;;;;;5.03;3.30;;;5.40;77.20;;;;;;4998850;28;20052;-80
2021/03/17 14:59:15;;;;;;;5.75;3.20;;;5.40;77.70;;;;;;4998463;28;20050;-79
2021/03/17 15:01:42;;;;;;;4.25;1.40;;;5.40;78.10;;;;;;5013630;28;20393;-78
2021/03/17 15:04:12;;;;;;;1.90;1.02;;;5.30;76.60;;;;;;5014639;28;20049;-78
2021/03/17 15:06:44;;;;;;;5.10;1.40;;;5.20;77.50;;;;;;4999677;28;20045;-79
2021/03/17 15:09:15;;;;;;;3.88;1.02;;;5.20;76.70;;;;;;5014228;28;20046;-79
2021/03/17 15:11:42;;;;;;;3.30;2.10;;;5.10;78.30;;;;;;5013243;28;20136;-79